Time;durP1;ratioP1;P1;durP2;ratioP2;P2;SDS_P1;SDS_P2;PMS_P1;PMS_P2;Temp;Humidity;BMP_temperature;BMP_pressure;BME280_temperature;BME280_humidity;BME280_pressure;Samples;Min_cycle;Max_cycle;Signal;HPM_P1;HPM_P2
2021/05/12 00:02:12;;;;;;;8.18;6.60;;;14.50;75.20;;;;;;5048289;28;20045;-85
2021/05/12 00:04:38;;;;;;;7.28;6.57;;;14.50;75.30;;;;;;5051058;28;20021;-84
2021/05/12 00:07:04;;;;;;;8.82;7.50;;;14.50;75.40;;;;;;5044284;28;20412;-85
2021/05/12 00:09:29;;;;;;;8.15;7.03;;;14.50;76.10;;;;;;5052891;28;20104;-86
2021/05/12 00:11:55;;;;;;;7.57;6.80;;;14.40;75.50;;;;;;5043797;28;20025;-84
2021/05/12 00:14:20;;;;;;;7.40;6.60;;;14.40;75.60;;;;;;5049236;28;20111;-86
2021/05/12 00:16:47;;;;;;;8.60;7.00;;;14.40;75.70;;;;;;5053342;28;20025;-85
2021/05/12 00:19:13;;;;;;;7.63;6.80;;;14.30;75.70;;;;;;5047869;28;20024;-85
2021/05/12 00:21:46;;;;;;;8.25;7.35;;;14.30;75.70;;;;;;5044412;28;20040;-85
2021/05/12 00:24:12;;;;;;;8.23;6.95;;;14.30;75.70;;;;;;5046901;28;20036;-86
2021/05/12 00:26:38;;;;;;;7.57;6.72;;;14.30;75.80;;;;;;5039860;28;20029;-85
2021/05/12 00:29:06;;;;;;;9.30;7.40;;;14.20;75.80;;;;;;5020450;28;20021;-85
2021/05/12 00:31:32;;;;;;;7.50;6.40;;;14.20;75.90;;;;;;5039257;28;20029;-84
2021/05/12 00:33:57;;;;;;;8.02;6.75;;;14.10;75.90;;;;;;5043681;28;20384;-85
2021/05/12 00:36:23;;;;;;;8.55;7.65;;;14.10;76.10;;;;;;5037324;28;20038;-85
2021/05/12 00:38:49;;;;;;;8.32;7.40;;;14.00;76.20;;;;;;5042441;28;20022;-84
2021/05/12 00:41:14;;;;;;;7.97;6.70;;;14.00;76.40;;;;;;5040658;28;20037;-87
2021/05/12 00:43:40;;;;;;;7.50;6.70;;;14.00;76.50;;;;;;5039479;28;20614;-84
2021/05/12 00:46:06;;;;;;;9.18;7.40;;;13.90;76.50;;;;;;5039701;28;20539;-87
2021/05/12 00:48:31;;;;;;;7.53;6.57;;;13.90;76.50;;;;;;5042406;28;20484;-87
2021/05/12 00:50:57;;;;;;;8.43;7.45;;;13.90;76.50;;;;;;5039705;28;20532;-86
2021/05/12 00:53:22;;;;;;;8.40;7.07;;;13.90;76.50;;;;;;5045579;28;20492;-86
2021/05/12 00:55:48;;;;;;;9.52;6.13;;;13.80;76.50;;;;;;5041934;28;20492;-87
2021/05/12 00:58:14;;;;;;;8.45;6.70;;;13.80;76.50;;;;;;5038909;28;20488;-86
2021/05/12 01:00:40;;;;;;;7.75;6.25;;;13.80;76.60;;;;;;5044738;28;20476;-85
2021/05/12 01:03:06;;;;;;;8.13;6.63;;;13.80;76.60;;;;;;5042804;28;20039;-86
2021/05/12 01:05:35;;;;;;;9.77;6.22;;;13.80;76.60;;;;;;5046292;28;20029;-84
2021/05/12 01:08:01;;;;;;;7.47;6.30;;;13.70;76.50;;;;;;5025267;28;20487;-86
2021/05/12 01:10:27;;;;;;;7.75;5.72;;;13.80;76.50;;;;;;5046718;28;20475;-86
2021/05/12 01:12:53;;;;;;;7.85;6.03;;;13.70;76.40;;;;;;5047461;28;20071;-86
2021/05/12 01:15:19;;;;;;;7.97;5.65;;;13.70;76.40;;;;;;5027880;28;20052;-86
2021/05/12 01:17:45;;;;;;;9.43;6.28;;;13.70;76.40;;;;;;5024874;28;20421;-85
2021/05/12 01:20:12;;;;;;;8.60;6.00;;;13.70;76.40;;;;;;5025155;28;20028;-86
2021/05/12 01:22:38;;;;;;;9.98;5.55;;;13.60;76.40;;;;;;5042316;28;20037;-84
2021/05/12 01:25:07;;;;;;;8.77;5.40;;;13.60;76.90;;;;;;5048763;28;20119;-84
2021/05/12 01:27:32;;;;;;;6.88;5.18;;;13.60;76.20;;;;;;5039156;28;20032;-85
2021/05/12 01:29:58;;;;;;;6.85;5.10;;;13.60;76.10;;;;;;5044008;28;20043;-85
2021/05/12 01:32:33;;;;;;;6.18;4.53;;;13.60;75.90;;;;;;5045066;28;20111;-85
2021/05/12 01:35:08;;;;;;;6.05;4.38;;;13.60;75.80;;;;;;5035530;28;20056;-84
2021/05/12 01:37:35;;;;;;;5.88;4.35;;;13.60;75.60;;;;;;5033032;28;20028;-85
2021/05/12 01:40:06;;;;;;;5.95;4.43;;;13.60;75.50;;;;;;5021432;28;20021;-86
2021/05/12 01:42:31;;;;;;;5.95;4.45;;;13.60;75.40;;;;;;5038614;28;20135;-85
2021/05/12 01:45:05;;;;;;;4.68;3.85;;;13.50;75.20;;;;;;5029614;28;20112;-86
2021/05/12 01:47:30;;;;;;;6.10;4.55;;;13.50;75.20;;;;;;5045455;28;20665;-85
2021/05/12 01:50:00;;;;;;;4.95;3.85;;;13.50;75.20;;;;;;5042017;28;20018;-85
2021/05/12 01:52:26;;;;;;;5.53;3.67;;;13.50;75.10;;;;;;5041369;28;20631;-86
2021/05/12 01:54:52;;;;;;;5.15;3.63;;;13.40;74.90;;;;;;5044206;28;20133;-85
2021/05/12 01:57:17;;;;;;;5.22;3.40;;;13.40;74.90;;;;;;5038157;28;20116;-86
2021/05/12 01:59:43;;;;;;;6.18;3.80;;;13.40;74.70;;;;;;5040490;28;20032;-86
2021/05/12 02:02:08;;;;;;;4.47;3.42;;;13.40;74.60;;;;;;5047399;28;20035;-87
2021/05/12 02:04:38;;;;;;;5.53;3.88;;;13.40;74.40;;;;;;5028630;28;20111;-86
2021/05/12 02:07:04;;;;;;;5.15;3.58;;;13.40;74.40;;;;;;5046682;28;20029;-86
2021/05/12 02:09:36;;;;;;;4.00;3.28;;;13.40;74.30;;;;;;5049593;28;20037;-85
2021/05/12 02:12:02;;;;;;;;;;;13.30;74.10;;;;;;5047827;28;20021;-85
2021/05/12 02:14:27;;;;;;;4.70;3.05;;;13.30;74.00;;;;;;5036670;28;19999;-85
2021/05/12 02:16:53;;;;;;;4.72;3.33;;;13.20;74.10;;;;;;5035160;28;20025;-85
2021/05/12 02:19:18;;;;;;;6.38;3.88;;;13.20;74.10;;;;;;5042830;28;20036;-84
2021/05/12 02:21:44;;;;;;;4.80;3.28;;;13.10;74.10;;;;;;5048465;28;20039;-85
2021/05/12 02:24:09;;;;;;;5.80;3.65;;;13.10;74.10;;;;;;5040749;28;20021;-86
2021/05/12 02:26:37;;;;;;;4.95;3.20;;;13.10;74.00;;;;;;5018034;28;20033;-86
2021/05/12 02:29:03;;;;;;;6.07;3.35;;;13.10;74.00;;;;;;5041024;28;20068;-85
2021/05/12 02:31:28;;;;;;;4.40;2.92;;;13.10;73.80;;;;;;5041162;28;20033;-85
2021/05/12 02:33:54;;;;;;;3.88;3.17;;;13.10;73.80;;;;;;5039554;28;20506;-86
2021/05/12 02:36:19;;;;;;;4.70;3.20;;;13.10;73.70;;;;;;5040967;28;20043;-86
2021/05/12 02:38:45;;;;;;;5.03;3.45;;;13.10;73.60;;;;;;5040185;28;20025;-85
2021/05/12 02:41:12;;;;;;;4.82;3.20;;;13.10;73.50;;;;;;5038537;28;20635;-85
2021/05/12 02:43:37;;;;;;;5.28;3.40;;;13.10;73.40;;;;;;5045890;28;20033;-85
2021/05/12 02:46:03;;;;;;;3.30;2.50;;;13.10;73.40;;;;;;5036803;28;20045;-84
2021/05/12 02:48:29;;;;;;;5.10;3.20;;;13.10;73.40;;;;;;5035165;28;20024;-83
2021/05/12 02:50:54;;;;;;;4.20;2.90;;;13.20;73.30;;;;;;5048151;28;20071;-85
2021/05/12 02:53:21;;;;;;;4.90;3.05;;;13.10;73.10;;;;;;5047051;28;20031;-84
2021/05/12 02:55:46;;;;;;;3.65;3.00;;;13.10;73.20;;;;;;5028893;28;20471;-85
2021/05/12 02:58:12;;;;;;;4.63;3.00;;;13.10;73.10;;;;;;5022210;28;20032;-85
2021/05/12 03:00:39;;;;;;;4.93;3.03;;;13.10;73.00;;;;;;5038843;28;20464;-85
2021/05/12 03:03:06;;;;;;;4.28;2.90;;;13.10;73.10;;;;;;5039883;28;20065;-86
2021/05/12 03:05:32;;;;;;;5.20;3.17;;;13.10;73.20;;;;;;5043485;28;20030;-83
2021/05/12 03:07:59;;;;;;;5.55;3.35;;;13.10;73.70;;;;;;5044635;28;20043;-85
2021/05/12 03:10:25;;;;;;;4.38;3.20;;;13.20;72.90;;;;;;5027761;28;20495;-85
2021/05/12 03:12:51;;;;;;;4.90;3.22;;;13.20;72.70;;;;;;5025322;28;20017;-86
2021/05/12 03:15:20;;;;;;;4.35;3.00;;;13.20;72.80;;;;;;5038002;28;20033;-86
2021/05/12 03:17:45;;;;;;;4.70;3.20;;;13.10;72.90;;;;;;5040477;28;20028;-86
2021/05/12 03:20:12;;;;;;;5.20;3.50;;;13.10;73.00;;;;;;5041451;28;20025;-86
2021/05/12 03:22:37;;;;;;;6.53;3.70;;;13.10;73.10;;;;;;5041371;28;20033;-86
2021/05/12 03:25:03;;;;;;;3.95;3.10;;;13.10;73.10;;;;;;5042332;28;20068;-85
2021/05/12 03:27:29;;;;;;;6.53;3.85;;;13.10;73.20;;;;;;5016547;28;20028;-86
2021/05/12 03:29:54;;;;;;;6.63;4.00;;;13.00;73.30;;;;;;5022064;28;20021;-86
2021/05/12 03:32:20;;;;;;;5.57;3.63;;;13.00;73.30;;;;;;5047408;28;20021;-85
2021/05/12 03:34:46;;;;;;;4.60;3.60;;;13.00;73.50;;;;;;5026675;28;20094;-86
2021/05/12 03:37:11;;;;;;;6.53;4.22;;;12.90;73.60;;;;;;5033377;28;20033;-84
2021/05/12 03:39:37;;;;;;;7.30;4.55;;;12.90;73.70;;;;;;5038102;28;20017;-85
2021/05/12 03:42:03;;;;;;;6.57;4.65;;;12.80;73.70;;;;;;5041673;28;20033;-84
2021/05/12 03:44:28;;;;;;;6.25;4.47;;;12.80;73.80;;;;;;5033729;28;20123;-84
2021/05/12 03:46:54;;;;;;;7.35;5.68;;;12.80;73.80;;;;;;5047784;28;20388;-83
2021/05/12 03:49:19;;;;;;;8.25;5.90;;;12.80;73.70;;;;;;5036705;28;20487;-84
2021/05/12 03:51:45;;;;;;;6.75;5.15;;;12.80;73.70;;;;;;5032236;28;20395;-85
2021/05/12 03:54:11;;;;;;;7.57;5.20;;;12.80;73.60;;;;;;5036251;28;20026;-83
2021/05/12 03:56:36;;;;;;;7.88;5.43;;;12.70;73.70;;;;;;5036324;28;20499;-83
2021/05/12 03:59:02;;;;;;;10.15;7.00;;;12.70;73.80;;;;;;5039851;28;20053;-86
2021/05/12 04:01:28;;;;;;;8.05;6.30;;;12.60;74.00;;;;;;5042001;28;20422;-87
2021/05/12 04:03:54;;;;;;;9.35;6.63;;;12.60;74.10;;;;;;5045392;28;20025;-83
2021/05/12 04:06:20;;;;;;;11.13;7.38;;;12.60;74.20;;;;;;5045830;28;20036;-84
2021/05/12 04:08:45;;;;;;;11.50;7.82;;;12.50;74.40;;;;;;5044358;28;20119;-83
2021/05/12 04:11:11;;;;;;;7.03;5.65;;;12.50;74.50;;;;;;5044539;28;20028;-84
2021/05/12 04:13:37;;;;;;;10.90;8.35;;;12.50;74.60;;;;;;5051014;28;20025;-85
2021/05/12 04:16:03;;;;;;;10.25;7.72;;;12.40;74.80;;;;;;5044757;28;20021;-84
2021/05/12 04:18:29;;;;;;;9.77;6.68;;;12.40;74.90;;;;;;5043735;28;20022;-84
2021/05/12 04:20:55;;;;;;;7.15;5.10;;;12.40;74.90;;;;;;5047815;28;20609;-85
2021/05/12 04:23:20;;;;;;;8.80;6.22;;;12.50;74.90;;;;;;5046002;28;20498;-84
2021/05/12 04:25:46;;;;;;;8.77;6.22;;;12.50;74.90;;;;;;5045044;28;20603;-84
2021/05/12 04:28:12;;;;;;;10.23;6.40;;;12.50;74.90;;;;;;5048611;28;20032;-85
2021/05/12 04:30:37;;;;;;;8.15;6.22;;;12.50;74.90;;;;;;5043156;28;20017;-83
2021/05/12 04:33:04;;;;;;;8.30;6.82;;;12.60;75.50;;;;;;5041712;28;20030;-84
2021/05/12 04:35:30;;;;;;;8.10;6.38;;;12.60;74.90;;;;;;5043058;28;20022;-85
2021/05/12 04:37:55;;;;;;;7.85;5.72;;;12.60;74.80;;;;;;5049463;28;20025;-85
2021/05/12 04:40:22;;;;;;;9.70;6.40;;;12.60;74.70;;;;;;5045983;28;20512;-84
2021/05/12 04:42:48;;;;;;;9.27;6.38;;;12.60;74.70;;;;;;5042930;28;20029;-84
2021/05/12 04:45:16;;;;;;;9.73;6.90;;;12.70;74.70;;;;;;5044603;28;20035;-85
2021/05/12 04:47:41;;;;;;;8.35;5.97;;;12.70;74.70;;;;;;5036506;28;20516;-85
2021/05/12 04:50:09;;;;;;;7.47;4.70;;;12.70;74.70;;;;;;5039055;28;20025;-84
2021/05/12 04:52:35;;;;;;;8.88;5.97;;;12.70;74.70;;;;;;5039577;28;20040;-85
2021/05/12 04:55:00;;;;;;;7.35;5.28;;;12.70;74.70;;;;;;5041069;28;20688;-85
2021/05/12 04:57:26;;;;;;;8.38;6.05;;;12.70;74.70;;;;;;5025013;28;20784;-85
2021/05/12 04:59:51;;;;;;;9.77;6.32;;;12.80;74.80;;;;;;5042996;28;20676;-84
2021/05/12 05:02:17;;;;;;;8.50;5.60;;;12.80;74.70;;;;;;5043461;28;20112;-84
2021/05/12 05:04:43;;;;;;;6.45;4.43;;;12.80;74.60;;;;;;5041765;28;20040;-87
2021/05/12 05:07:09;;;;;;;7.45;5.80;;;12.90;74.60;;;;;;5027700;28;20040;-87
2021/05/12 05:09:35;;;;;;;8.30;5.45;;;13.00;74.60;;;;;;5026880;28;20021;-85
2021/05/12 05:12:00;;;;;;;11.35;7.63;;;13.10;74.50;;;;;;5047890;28;20055;-84
2021/05/12 05:14:26;;;;;;;8.90;5.88;;;13.10;74.30;;;;;;5045812;28;20055;-85
2021/05/12 05:16:52;;;;;;;8.50;5.65;;;13.40;74.10;;;;;;5042198;28;20043;-89
2021/05/12 05:19:18;;;;;;;7.95;5.50;;;14.30;73.10;;;;;;5023107;28;20095;-88
2021/05/12 05:21:43;;;;;;;8.60;5.38;;;15.20;70.70;;;;;;5045334;28;20075;-87
2021/05/12 05:24:09;;;;;;;8.50;5.20;;;16.20;69.00;;;;;;5029321;28;20025;-87
2021/05/12 05:26:36;;;;;;;5.95;3.70;;;17.10;65.80;;;;;;5024269;28;20053;-86
2021/05/12 05:29:02;;;;;;;7.85;4.97;;;17.90;63.70;;;;;;5039008;28;20037;-86
2021/05/12 05:31:28;;;;;;;9.05;5.40;;;18.50;61.90;;;;;;5038507;28;20112;-89
2021/05/12 05:33:54;;;;;;;10.02;6.70;;;19.00;60.30;;;;;;5039688;28;20097;-85
2021/05/12 05:36:20;;;;;;;7.47;4.80;;;19.40;58.80;;;;;;5017960;28;20460;-83
2021/05/12 05:38:45;;;;;;;5.35;4.18;;;19.90;58.10;;;;;;5037968;28;20072;-85
2021/05/12 05:41:11;;;;;;;11.23;7.43;;;20.40;57.10;;;;;;5041609;28;20029;-87
2021/05/12 05:43:36;;;;;;;8.60;6.25;;;20.60;55.30;;;;;;5038544;28;20124;-86
2021/05/12 05:46:02;;;;;;;7.07;4.90;;;20.80;54.50;;;;;;5041279;28;20082;-88
2021/05/12 05:48:28;;;;;;;7.63;5.25;;;21.10;54.50;;;;;;5034834;28;20363;-87
2021/05/12 05:50:53;;;;;;;8.13;4.60;;;21.40;53.70;;;;;;5021538;28;20021;-87
2021/05/12 05:53:20;;;;;;;8.43;5.32;;;21.60;53.00;;;;;;5044234;28;20483;-88
2021/05/12 05:55:47;;;;;;;7.05;4.90;;;21.80;52.50;;;;;;5046936;28;20045;-86
2021/05/12 05:58:12;;;;;;;7.13;5.10;;;22.10;52.20;;;;;;5043942;28;20561;-86
2021/05/12 06:00:40;;;;;;;9.30;6.30;;;22.30;51.80;;;;;;5035113;28;20104;-87
2021/05/12 06:03:06;;;;;;;6.75;5.38;;;22.50;51.00;;;;;;5040518;28;20053;-87
2021/05/12 06:05:31;;;;;;;10.75;6.90;;;22.60;50.60;;;;;;5047998;28;20641;-86
2021/05/12 06:07:57;;;;;;;6.90;5.32;;;22.60;49.90;;;;;;5049476;28;20025;-86
2021/05/12 06:10:22;;;;;;;8.13;6.00;;;22.70;49.80;;;;;;5041989;28;20031;-86
2021/05/12 06:12:49;;;;;;;8.50;5.30;;;22.70;49.80;;;;;;5046299;28;20029;-86
2021/05/12 06:15:19;;;;;;;8.27;5.70;;;23.00;49.70;;;;;;5043437;28;20025;-87
2021/05/12 06:17:45;;;;;;;9.02;6.25;;;23.10;49.00;;;;;;5019646;28;20045;-87
2021/05/12 06:20:11;;;;;;;7.38;6.22;;;23.00;48.50;;;;;;5042912;28;20218;-87
2021/05/12 06:22:37;;;;;;;8.52;6.50;;;22.90;48.30;;;;;;5036513;28;20072;-86
2021/05/12 06:25:03;;;;;;;7.35;5.60;;;22.70;48.70;;;;;;5045719;28;20028;-87
2021/05/12 06:27:28;;;;;;;11.90;7.47;;;22.70;49.20;;;;;;5043100;28;20069;-87
2021/05/12 06:29:54;;;;;;;10.77;6.88;;;22.60;49.00;;;;;;5046374;28;20032;-87
2021/05/12 06:32:19;;;;;;;7.18;5.20;;;22.30;49.50;;;;;;5041664;28;20040;-86
2021/05/12 06:34:45;;;;;;;7.70;4.63;;;22.00;50.50;;;;;;5037288;28;20021;-86
2021/05/12 06:37:10;;;;;;;7.18;4.70;;;22.00;51.10;;;;;;5039130;28;20026;-86
2021/05/12 06:39:36;;;;;;;6.93;4.25;;;21.50;51.60;;;;;;5028044;28;20029;-86
2021/05/12 06:42:01;;;;;;;6.53;4.60;;;21.30;52.30;;;;;;5047944;28;20036;-86
2021/05/12 06:44:27;;;;;;;7.75;4.82;;;21.20;53.00;;;;;;5048708;28;20036;-85
2021/05/12 06:46:52;;;;;;;7.57;4.50;;;21.00;53.50;;;;;;5041275;28;20045;-85
2021/05/12 06:49:19;;;;;;;6.43;3.95;;;20.70;53.60;;;;;;5042915;28;20527;-85
2021/05/12 06:51:45;;;;;;;8.93;4.60;;;20.50;54.30;;;;;;5046787;28;20025;-86
2021/05/12 06:54:10;;;;;;;6.40;3.80;;;20.40;54.60;;;;;;5023157;28;20028;-86
2021/05/12 06:56:36;;;;;;;7.93;4.28;;;20.20;54.90;;;;;;5041278;28;20049;-87
2021/05/12 06:59:02;;;;;;;6.88;4.07;;;20.00;55.00;;;;;;5036433;28;20063;-86
2021/05/12 07:01:27;;;;;;;6.97;3.80;;;19.80;55.30;;;;;;5046029;28;20630;-88
2021/05/12 07:03:53;;;;;;;6.55;3.70;;;19.70;55.60;;;;;;5042416;28;20083;-86
2021/05/12 07:06:18;;;;;;;6.68;3.90;;;19.90;55.20;;;;;;5044745;28;20041;-87
2021/05/12 07:08:48;;;;;;;7.43;4.72;;;20.20;54.90;;;;;;5037405;28;20460;-87
2021/05/12 07:11:14;;;;;;;6.68;3.55;;;20.60;54.30;;;;;;5049276;28;20446;-87
2021/05/12 07:13:39;;;;;;;5.22;3.50;;;20.80;54.10;;;;;;5039217;28;20074;-87
2021/05/12 07:16:05;;;;;;;6.95;4.28;;;20.90;53.90;;;;;;5039200;28;20423;-87
2021/05/12 07:18:32;;;;;;;7.30;4.10;;;20.70;53.60;;;;;;5046255;28;20033;-87
2021/05/12 07:20:58;;;;;;;5.38;3.90;;;20.60;53.70;;;;;;5039655;28;20040;-87
2021/05/12 07:23:26;;;;;;;5.85;3.55;;;20.30;54.00;;;;;;5037559;28;20041;-87
2021/05/12 07:25:54;;;;;;;5.53;3.22;;;20.10;54.40;;;;;;5018076;28;20017;-88
2021/05/12 07:28:20;;;;;;;5.65;2.83;;;19.80;54.60;;;;;;5043880;28;20479;-86
2021/05/12 07:30:46;;;;;;;5.90;3.90;;;19.70;55.20;;;;;;5047067;28;20036;-86
2021/05/12 07:33:11;;;;;;;3.55;2.83;;;19.60;55.30;;;;;;5035911;28;20044;-86
2021/05/12 07:35:37;;;;;;;5.93;2.88;;;19.50;55.10;;;;;;5052212;28;20040;-85
2021/05/12 07:38:03;;;;;;;6.43;3.13;;;19.40;55.20;;;;;;5052957;28;20020;-87
2021/05/12 07:40:34;;;;;;;5.78;3.40;;;19.20;55.00;;;;;;5038365;28;20020;-87
2021/05/12 07:43:01;;;;;;;5.70;3.22;;;19.10;55.30;;;;;;5041329;28;20048;-86
2021/05/12 07:45:27;;;;;;;7.43;2.72;;;19.00;55.70;;;;;;5044625;28;20024;-86
2021/05/12 07:47:56;;;;;;;3.80;2.30;;;19.10;55.70;;;;;;5031429;28;20029;-85
2021/05/12 07:50:22;;;;;;;4.13;2.30;;;19.20;55.50;;;;;;5050037;28;20017;-86
2021/05/12 07:52:47;;;;;;;5.07;2.85;;;19.20;55.20;;;;;;5026396;28;20032;-86
2021/05/12 07:55:13;;;;;;;5.55;2.58;;;19.20;54.90;;;;;;5044373;28;20427;-86
2021/05/12 07:57:41;;;;;;;4.07;1.80;;;19.10;54.30;;;;;;5044932;28;20057;-87
2021/05/12 08:00:08;;;;;;;5.53;2.35;;;19.20;54.90;;;;;;5054402;28;20021;-86
2021/05/12 08:02:35;;;;;;;5.40;2.10;;;19.30;54.40;;;;;;5026348;28;20127;-85
2021/05/12 08:05:01;;;;;;;5.97;2.67;;;19.30;54.50;;;;;;5019328;28;20097;-86
2021/05/12 08:07:26;;;;;;;4.10;1.50;;;19.30;53.20;;;;;;5040142;28;20105;-86
2021/05/12 08:09:52;;;;;;;5.05;1.80;;;19.30;53.40;;;;;;5039366;28;20081;-86
2021/05/12 08:12:18;;;;;;;3.22;1.40;;;19.30;53.40;;;;;;5023441;28;20033;-88
2021/05/12 08:14:43;;;;;;;2.78;1.30;;;19.30;52.70;;;;;;5047611;28;20089;-86
2021/05/12 08:17:09;;;;;;;4.28;1.10;;;19.30;52.30;;;;;;5047487;28;20056;-87
2021/05/12 08:19:34;;;;;;;2.60;1.33;;;19.30;52.40;;;;;;5042971;28;20029;-87
2021/05/12 08:22:05;;;;;;;3.45;1.58;;;19.40;52.50;;;;;;5044275;28;20111;-87
2021/05/12 08:24:30;;;;;;;4.00;1.50;;;19.40;52.40;;;;;;5051688;28;20033;-88
2021/05/12 08:26:57;;;;;;;3.83;1.33;;;19.50;52.40;;;;;;5049279;28;20032;-88
2021/05/12 08:29:23;;;;;;;2.92;1.20;;;19.60;52.10;;;;;;5047467;28;20090;-88
2021/05/12 08:31:48;;;;;;;3.08;1.40;;;19.50;51.90;;;;;;5030663;28;20025;-85
2021/05/12 08:34:14;;;;;;;4.13;1.52;;;19.60;52.10;;;;;;5033259;28;20036;-85
2021/05/12 08:36:41;;;;;;;4.20;1.40;;;19.60;52.00;;;;;;5035426;28;20043;-85
2021/05/12 08:39:08;;;;;;;3.67;1.50;;;19.70;51.70;;;;;;5047567;28;20031;-87
2021/05/12 08:41:35;;;;;;;2.10;1.00;;;19.60;51.30;;;;;;5030341;28;20112;-85
2021/05/12 08:44:07;;;;;;;4.00;1.40;;;19.70;51.00;;;;;;5033010;28;20029;-86
2021/05/12 08:46:34;;;;;;;3.20;1.23;;;19.70;50.70;;;;;;5046178;28;20025;-87
2021/05/12 08:49:01;;;;;;;2.97;1.23;;;19.70;51.00;;;;;;5036252;28;20021;-87
2021/05/12 08:51:27;;;;;;;2.85;1.52;;;19.90;51.10;;;;;;5049928;28;20082;-88
2021/05/12 08:53:57;;;;;;;5.47;1.90;;;20.10;50.50;;;;;;5053615;28;20025;-86
2021/05/12 08:56:23;;;;;;;4.05;1.70;;;19.70;48.40;;;;;;5047896;28;20487;-86
2021/05/12 08:58:50;;;;;;;2.67;1.20;;;19.70;49.40;;;;;;5036184;28;20025;-87
2021/05/12 09:01:17;;;;;;;4.35;1.42;;;19.80;49.60;;;;;;5033685;28;20025;-86
2021/05/12 09:03:46;;;;;;;2.95;1.50;;;19.80;49.10;;;;;;5047690;28;20021;-86
2021/05/12 09:06:12;;;;;;;2.88;1.17;;;19.70;48.50;;;;;;5051308;28;20044;-86
2021/05/12 09:08:38;;;;;;;3.03;1.45;;;19.80;49.10;;;;;;5043860;28;20025;-87
2021/05/12 09:11:04;;;;;;;2.85;1.20;;;19.90;48.70;;;;;;5043186;28;20049;-88
2021/05/12 09:13:38;;;;;;;2.42;1.10;;;19.80;48.80;;;;;;5047114;28;20506;-88
2021/05/12 09:16:15;;;;;;;3.70;1.30;;;20.00;48.80;;;;;;5051806;28;20036;-87
2021/05/12 09:18:40;;;;;;;2.83;1.17;;;20.00;48.70;;;;;;5029176;28;20503;-87
2021/05/12 09:21:06;;;;;;;3.88;1.20;;;20.00;48.40;;;;;;5040622;28;20021;-87
2021/05/12 09:23:41;;;;;;;2.95;1.23;;;20.00;47.50;;;;;;5041253;28;20510;-88
2021/05/12 09:26:12;;;;;;;13.45;2.38;;;20.00;47.80;;;;;;5033799;28;20052;-87
2021/05/12 09:28:38;;;;;;;2.13;1.00;;;20.00;47.70;;;;;;5047719;28;20025;-87
2021/05/12 09:31:11;;;;;;;3.55;1.33;;;20.00;47.30;;;;;;5050863;28;20028;-87
2021/05/12 09:33:42;;;;;;;70.68;8.38;;;19.90;46.90;;;;;;5017123;28;20084;-87
2021/05/12 09:36:08;;;;;;;6.35;2.00;;;19.90;47.50;;;;;;5017991;28;20534;-87
2021/05/12 09:38:34;;;;;;;3.22;1.20;;;19.90;47.50;;;;;;5041348;28;20029;-87
2021/05/12 09:41:13;;;;;;;2.97;1.35;;;20.00;48.20;;;;;;5042605;28;20048;-87
2021/05/12 09:43:50;;;;;;;2.90;1.20;;;20.10;48.40;;;;;;5048109;28;20030;-86
2021/05/12 09:46:27;;;;;;;3.85;1.27;;;20.30;48.70;;;;;;5030333;28;20106;-87
2021/05/12 09:48:58;;;;;;;4.47;1.73;;;20.40;48.50;;;;;;5047012;28;20389;-87
2021/05/12 09:51:25;;;;;;;5.07;1.90;;;20.40;48.40;;;;;;5036101;28;20488;-87
2021/05/12 09:54:04;;;;;;;2.50;1.48;;;20.40;48.60;;;;;;5034379;28;20167;-87
2021/05/12 09:56:49;;;;;;;2.80;1.30;;;20.50;48.90;;;;;;5034858;28;20032;-86
2021/05/12 09:59:23;;;;;;;4.30;1.27;;;20.60;48.80;;;;;;5046366;28;20025;-87
2021/05/12 10:01:58;;;;;;;2.63;1.20;;;20.80;48.40;;;;;;5028403;28;20028;-87
2021/05/12 10:04:29;;;;;;;2.75;1.20;;;21.00;48.00;;;;;;5044042;28;20117;-86
2021/05/12 10:06:56;;;;;;;4.65;1.45;;;21.10;47.50;;;;;;5040538;28;20083;-86
2021/05/12 10:09:24;;;;;;;3.78;1.30;;;21.00;46.00;;;;;;5032763;28;20025;-87
2021/05/12 10:12:00;;;;;;;5.18;1.67;;;20.90;45.60;;;;;;5048522;28;20017;-86
2021/05/12 10:14:26;;;;;;;2.63;1.00;;;20.80;45.60;;;;;;5029511;28;20025;-86
2021/05/12 10:16:52;;;;;;;4.25;1.40;;;20.90;46.00;;;;;;5034420;28;20092;-86
2021/05/12 10:19:18;;;;;;;3.70;1.10;;;21.00;45.10;;;;;;5037214;28;20476;-87
2021/05/12 10:21:43;;;;;;;3.20;1.20;;;21.00;44.80;;;;;;5039336;28;20113;-87
2021/05/12 10:24:09;;;;;;;2.00;0.75;;;21.00;45.30;;;;;;5033068;28;20021;-87
2021/05/12 10:26:36;;;;;;;4.38;1.33;;;21.10;45.40;;;;;;5044060;28;20032;-87
2021/05/12 10:29:01;;;;;;;4.40;1.58;;;21.30;43.80;;;;;;5030701;28;20029;-88
2021/05/12 10:31:27;;;;;;;2.80;1.15;;;21.10;43.30;;;;;;5043307;28;20442;-88
2021/05/12 10:33:53;;;;;;;1.80;0.73;;;21.10;43.60;;;;;;5037486;28;20053;-88
2021/05/12 10:36:20;;;;;;;2.55;1.00;;;21.20;43.60;;;;;;5046372;28;20021;-86
2021/05/12 10:38:46;;;;;;;2.60;0.88;;;21.30;42.90;;;;;;5041014;28;20090;-87
2021/05/12 10:41:45;;;;;;;4.15;1.20;;;21.30;42.50;;;;;;5036978;28;20022;-87
2021/05/12 10:44:19;;;;;;;3.38;0.90;;;21.30;42.10;;;;;;5027698;28;20025;-88
2021/05/12 10:46:58;;;;;;;5.18;1.17;;;21.30;42.60;;;;;;5028291;28;20032;-87
2021/05/12 10:49:25;;;;;;;5.45;1.30;;;21.30;42.20;;;;;;5049142;28;20029;-87
2021/05/12 10:51:52;;;;;;;6.03;1.60;;;21.10;42.20;;;;;;5041400;28;20414;-87
2021/05/12 10:54:40;;;;;;;3.63;1.23;;;21.10;42.80;;;;;;5047545;28;20468;-88
2021/05/12 10:57:07;;;;;;;3.55;1.10;;;21.10;42.80;;;;;;5026663;28;20499;-88
2021/05/12 10:59:33;;;;;;;3.78;1.20;;;21.30;42.90;;;;;;5033040;28;20074;-87
2021/05/12 11:01:59;;;;;;;3.00;1.02;;;21.20;42.70;;;;;;5019820;28;20040;-85
2021/05/12 11:04:25;;;;;;;3.88;1.20;;;21.30;43.20;;;;;;5047114;28;20017;-87
2021/05/12 11:06:51;;;;;;;7.57;1.40;;;21.20;43.30;;;;;;5045454;28;20498;-88
2021/05/12 11:09:22;;;;;;;4.50;1.00;;;21.10;43.60;;;;;;5022679;28;20025;-88
2021/05/12 11:11:48;;;;;;;3.30;1.05;;;21.00;44.00;;;;;;5017041;28;20037;-87
2021/05/12 11:14:21;;;;;;;3.75;1.17;;;21.10;44.20;;;;;;5037836;28;20052;-88
2021/05/12 11:17:03;;;;;;;3.95;1.20;;;21.20;44.00;;;;;;5032436;28;20025;-87
2021/05/12 11:19:58;;;;;;;3.67;1.20;;;21.30;43.70;;;;;;5030416;28;20025;-88
2021/05/12 11:25:25;;;;;;;3.03;0.93;;;21.50;43.50;;;;;;5043049;28;20076;-87
2021/05/12 11:33:35;;;;;;;4.18;1.10;;;21.40;43.00;;;;;;5044109;28;20451;-86
2021/05/12 11:36:12;;;;;;;3.20;0.90;;;21.40;43.00;;;;;;5038943;28;20036;-85
2021/05/12 11:38:39;;;;;;;4.78;1.20;;;21.50;42.70;;;;;;5041215;28;20025;-86
2021/05/12 11:41:07;;;;;;;5.25;1.50;;;21.50;42.60;;;;;;5038966;28;20052;-85
2021/05/12 11:43:41;;;;;;;3.58;1.10;;;21.70;41.50;;;;;;5036698;28;20504;-85
2021/05/12 11:46:18;;;;;;;1.63;0.68;;;21.60;41.20;;;;;;5020116;28;20019;-85
2021/05/12 11:48:53;;;;;;;1.73;0.90;;;21.60;41.10;;;;;;5036231;28;20025;-85
2021/05/12 11:51:39;;;;;;;3.97;0.93;;;21.80;41.50;;;;;;5039453;28;20033;-84
2021/05/12 11:54:19;;;;;;;2.53;0.93;;;22.10;41.70;;;;;;5042277;28;20025;-84
2021/05/12 11:56:54;;;;;;;2.53;0.75;;;22.30;41.00;;;;;;5032742;28;20029;-87
2021/05/12 11:59:30;;;;;;;3.05;0.80;;;22.50;41.00;;;;;;5040193;28;20372;-87
2021/05/12 12:02:09;;;;;;;1.38;0.60;;;22.70;40.90;;;;;;5021571;28;20064;-86
2021/05/12 12:05:00;;;;;;;2.22;0.80;;;22.90;40.60;;;;;;5027142;28;20087;-85
2021/05/12 12:07:26;;;;;;;3.95;1.13;;;22.90;40.50;;;;;;5038549;28;20104;-86
2021/05/12 12:10:04;;;;;;;3.28;0.80;;;22.80;40.30;;;;;;5040145;28;20112;-86
2021/05/12 12:12:30;;;;;;;2.28;0.63;;;22.80;40.70;;;;;;5036931;28;20484;-87
2021/05/12 12:15:10;;;;;;;2.47;0.82;;;22.50;40.70;;;;;;5041749;28;20025;-86
2021/05/12 12:17:36;;;;;;;3.33;0.90;;;22.30;40.90;;;;;;5026518;28;20446;-87
2021/05/12 12:20:07;;;;;;;3.03;0.88;;;22.20;41.40;;;;;;5039976;28;20108;-87
2021/05/12 12:22:33;;;;;;;3.28;1.10;;;22.20;41.60;;;;;;5041683;28;20154;-87
2021/05/12 12:25:15;;;;;;;1.85;0.70;;;22.20;41.70;;;;;;5021621;28;20022;-87
2021/05/12 12:27:42;;;;;;;2.08;0.80;;;22.30;41.70;;;;;;5044538;28;20036;-88
2021/05/12 12:30:09;;;;;;;3.45;0.80;;;22.50;41.20;;;;;;5042028;28;20484;-87
2021/05/12 12:32:36;;;;;;;3.10;1.05;;;22.80;41.20;;;;;;5024062;28;20045;-87
2021/05/12 12:35:02;;;;;;;3.40;1.23;;;22.80;39.90;;;;;;5042120;28;20021;-88
2021/05/12 12:37:35;;;;;;;3.92;1.00;;;22.80;39.30;;;;;;5041063;28;20034;-88
2021/05/12 12:40:09;;;;;;;2.10;0.80;;;22.90;40.00;;;;;;5026324;28;20096;-88
2021/05/12 12:42:39;;;;;;;1.92;0.90;;;23.10;38.80;;;;;;5027428;28;20036;-88
2021/05/12 12:45:26;;;;;;;2.38;1.00;;;22.90;37.90;;;;;;5042754;28;20029;-86
2021/05/12 12:47:56;;;;;;;7.43;1.38;;;22.80;38.10;;;;;;5045035;28;20510;-86
2021/05/12 12:50:24;;;;;;;2.75;0.80;;;22.80;38.70;;;;;;5044785;28;20025;-87
2021/05/12 12:52:50;;;;;;;3.03;0.70;;;22.80;39.10;;;;;;5042999;28;20028;-87
2021/05/12 12:55:21;;;;;;;3.60;0.90;;;22.80;39.20;;;;;;5024591;28;20772;-88
2021/05/12 12:57:53;;;;;;;1.70;0.90;;;22.70;40.00;;;;;;5037027;28;20024;-88